createdAt,value
2023-05-19T00:00:11.081Z,101357.57
2023-05-19T00:01:12.084Z,101355.36
2023-05-19T00:02:12.112Z,101354.47
2023-05-19T00:03:11.154Z,101352.94
2023-05-19T00:04:11.083Z,101354.64
2023-05-19T00:05:11.090Z,101351.14
2023-05-19T00:06:11.141Z,101351.44
2023-05-19T00:07:12.078Z,101352.07
2023-05-19T00:08:12.086Z,101348.05
2023-05-19T00:09:11.079Z,101349.46
2023-05-19T00:10:11.083Z,101344.63
2023-05-19T00:11:11.087Z,101345.95
2023-05-19T00:12:11.086Z,101343.41
2023-05-19T00:13:11.080Z,101345.35
2023-05-19T00:14:11.084Z,101343.46
2023-05-19T00:15:11.080Z,101343.91
2023-05-19T00:16:11.127Z,101342.83
2023-05-19T00:17:11.088Z,101343.68
2023-05-19T00:18:12.105Z,101346.36
2023-05-19T00:19:11.173Z,101346.53
2023-05-19T00:20:11.077Z,101342.02
2023-05-19T00:21:11.088Z,101340.85
2023-05-19T00:22:11.085Z,101342.13
2023-05-19T00:23:11.079Z,101342.94
2023-05-19T00:24:11.086Z,101338.49
2023-05-19T00:25:11.082Z,101343.69
2023-05-19T00:26:11.083Z,101341.11
2023-05-19T00:27:11.083Z,101341.53
2023-05-19T00:28:11.083Z,101340.61
2023-05-19T00:29:11.078Z,101340.50
2023-05-19T00:30:11.097Z,101341.55
2023-05-19T00:31:11.081Z,101340.39
2023-05-19T00:32:11.199Z,101336.32
2023-05-19T00:33:11.136Z,101337.64
2023-05-19T00:34:11.085Z,101339.14
2023-05-19T00:35:11.084Z,101341.55
2023-05-19T00:36:11.128Z,101341.23
2023-05-19T00:37:11.089Z,101340.73
2023-05-19T00:38:11.102Z,101337.70
2023-05-19T00:39:11.087Z,101340.29
2023-05-19T00:40:11.088Z,101336.14
2023-05-19T00:41:11.082Z,101331.97
2023-05-19T00:42:11.086Z,101332.93
2023-05-19T00:43:12.102Z,101334.19
2023-05-19T00:44:11.081Z,101332.59
2023-05-19T00:45:11.087Z,101337.30
2023-05-19T00:46:11.242Z,101334.82
2023-05-19T00:47:11.085Z,101336.47
2023-05-19T00:48:11.088Z,101336.97
2023-05-19T00:49:11.087Z,101340.65
2023-05-19T00:50:11.085Z,101338.07
2023-05-19T00:51:11.085Z,101335.48
2023-05-19T00:52:11.089Z,101339.39
2023-05-19T00:53:11.093Z,101343.07
2023-05-19T00:54:11.089Z,101339.50
2023-05-19T00:55:11.090Z,101340.81
2023-05-19T00:56:11.084Z,101342.11
2023-05-19T00:57:11.084Z,101344.14
2023-05-19T00:58:11.092Z,101343.10
2023-05-19T00:59:11.089Z,101341.32
2023-05-19T01:00:11.090Z,101342.69
2023-05-19T01:01:11.114Z,101339.97
2023-05-19T01:02:11.060Z,101342.66
2023-05-19T01:03:14.210Z,101338.91
2023-05-19T01:04:13.069Z,101336.51
2023-05-19T01:05:11.072Z,101337.73
2023-05-19T01:06:11.059Z,101338.80
2023-05-19T01:07:11.072Z,101337.36
2023-05-19T01:08:11.078Z,101342.45
2023-05-19T01:09:11.060Z,101343.62
2023-05-19T01:10:11.077Z,101343.61
2023-05-19T01:11:11.065Z,101345.38
2023-05-19T01:12:11.060Z,101345.30
2023-05-19T01:13:11.071Z,101343.88
2023-05-19T01:14:11.064Z,101342.62
2023-05-19T01:15:11.064Z,101342.68
2023-05-19T01:16:22.096Z,101339.76
2023-05-19T01:17:19.063Z,101340.92
2023-05-19T01:18:13.082Z,101341.97
2023-05-19T01:19:19.123Z,101346.32
2023-05-19T01:20:16.078Z,101343.72
2023-05-19T01:21:19.068Z,101344.99
2023-05-19T01:22:23.183Z,101346.73
2023-05-19T01:23:19.073Z,101345.05
2023-05-19T01:24:19.079Z,101342.25
2023-05-19T01:25:19.077Z,101338.59
2023-05-19T01:26:19.069Z,101337.66
2023-05-19T01:27:19.070Z,101336.12
2023-05-19T01:28:19.063Z,101336.54
2023-05-19T01:29:19.080Z,101333.48
2023-05-19T01:30:21.065Z,101334.84
2023-05-19T01:31:11.075Z,101333.67
2023-05-19T01:32:11.111Z,101338.20
2023-05-19T01:33:11.070Z,101337.62
2023-05-19T01:34:11.069Z,101335.96
2023-05-19T01:35:12.061Z,101338.88
2023-05-19T01:36:12.070Z,101332.77
2023-05-19T01:37:12.069Z,101335.80
2023-05-19T01:38:11.078Z,101338.32
2023-05-19T01:39:11.072Z,101340.46
2023-05-19T01:40:11.077Z,101335.96
2023-05-19T01:41:11.064Z,101337.35
2023-05-19T01:42:11.085Z,101336.03
2023-05-19T01:43:12.093Z,101335.09
2023-05-19T01:44:11.082Z,101334.38
2023-05-19T01:45:11.080Z,101338.42
2023-05-19T01:46:11.152Z,101338.34
2023-05-19T01:47:11.070Z,101335.38
2023-05-19T01:48:11.432Z,101334.82
2023-05-19T01:49:11.073Z,101330.36
2023-05-19T01:50:11.086Z,101328.82
2023-05-19T01:51:11.082Z,101328.29
2023-05-19T01:52:11.080Z,101326.76
2023-05-19T01:53:11.071Z,101321.20
2023-05-19T01:54:11.075Z,101324.90
2023-05-19T01:55:11.077Z,101320.65
2023-05-19T01:56:11.072Z,101322.15
2023-05-19T01:57:19.089Z,101317.46
2023-05-19T01:58:20.081Z,101316.38
2023-05-19T01:59:21.072Z,101312.48
2023-05-19T02:00:19.371Z,101311.05
2023-05-19T02:01:21.107Z,101312.52
2023-05-19T02:02:19.087Z,101312.57
2023-05-19T02:03:19.084Z,101311.80
2023-05-19T02:04:19.166Z,101313.17
2023-05-19T02:05:19.075Z,101310.41
2023-05-19T02:06:19.083Z,101312.61
2023-05-19T02:07:19.090Z,101310.41
2023-05-19T02:08:19.079Z,101310.85
2023-05-19T02:09:19.078Z,101307.22
2023-05-19T02:10:18.081Z,101310.96
2023-05-19T02:11:19.093Z,101313.66
2023-05-19T02:12:20.078Z,101308.99
2023-05-19T02:13:13.073Z,101311.37
2023-05-19T02:14:19.076Z,101314.73
2023-05-19T02:15:15.086Z,101313.34
2023-05-19T02:16:11.093Z,101312.34
2023-05-19T02:17:12.071Z,101313.23
2023-05-19T02:18:12.085Z,101313.57
2023-05-19T02:19:21.137Z,101314.17
2023-05-19T02:20:11.074Z,101317.52
2023-05-19T02:21:11.075Z,101319.46
2023-05-19T02:22:11.084Z,101315.09
2023-05-19T02:23:11.101Z,101314.79
2023-05-19T02:24:11.095Z,101313.59
2023-05-19T02:25:11.094Z,101313.37
2023-05-19T02:26:11.087Z,101313.30
2023-05-19T02:27:11.081Z,101315.75
2023-05-19T02:28:11.090Z,101316.82
2023-05-19T02:29:11.093Z,101313.80
2023-05-19T02:30:11.091Z,101315.21
2023-05-19T02:31:12.085Z,101317.51
2023-05-19T02:32:11.213Z,101314.47
2023-05-19T02:33:11.134Z,101315.84
2023-05-19T02:34:11.090Z,101315.99
2023-05-19T02:35:11.075Z,101314.42
2023-05-19T02:36:11.076Z,101316.83
2023-05-19T02:37:11.087Z,101317.25
2023-05-19T02:38:11.086Z,101314.49
2023-05-19T02:39:11.095Z,101314.20
2023-05-19T02:40:11.121Z,101316.45
2023-05-19T02:41:11.075Z,101317.20
2023-05-19T02:42:11.088Z,101316.77
2023-05-19T02:43:11.096Z,101313.75
2023-05-19T02:44:11.078Z,101313.83
2023-05-19T02:45:11.076Z,101316.68
2023-05-19T02:46:11.099Z,101317.71
2023-05-19T02:47:11.076Z,101316.94
2023-05-19T02:48:11.150Z,101318.35
2023-05-19T02:49:11.088Z,101318.32
2023-05-19T02:50:11.077Z,101316.98
2023-05-19T02:51:11.076Z,101316.07
2023-05-19T02:52:11.082Z,101316.18
2023-05-19T02:53:11.080Z,101317.53
2023-05-19T02:54:11.074Z,101312.89
2023-05-19T02:55:11.080Z,101313.83
2023-05-19T02:56:11.082Z,101314.58
2023-05-19T02:57:11.074Z,101313.00
2023-05-19T02:58:11.083Z,101311.74
2023-05-19T02:59:11.081Z,101314.50
2023-05-19T03:00:11.077Z,101314.39
2023-05-19T03:01:11.097Z,101315.54
2023-05-19T03:02:11.144Z,101316.34
2023-05-19T03:03:11.144Z,101314.18
2023-05-19T03:04:11.105Z,101316.28
2023-05-19T03:05:11.081Z,101319.21
2023-05-19T03:06:12.083Z,101320.34
2023-05-19T03:07:11.095Z,101325.13
2023-05-19T03:08:11.082Z,101328.90
2023-05-19T03:09:11.077Z,101330.64
2023-05-19T03:10:11.083Z,101331.54
2023-05-19T03:11:11.081Z,101331.32
2023-05-19T03:12:11.078Z,101334.39
2023-05-19T03:13:11.085Z,101334.39
2023-05-19T03:14:11.082Z,101334.07
2023-05-19T03:15:11.081Z,101334.25
2023-05-19T03:16:11.148Z,101336.34
2023-05-19T03:17:13.186Z,101335.17
2023-05-19T03:18:11.166Z,101341.04
2023-05-19T03:19:23.142Z,101337.73
2023-05-19T03:20:11.106Z,101336.85
2023-05-19T03:21:11.093Z,101339.49
2023-05-19T03:22:11.097Z,101334.98
2023-05-19T03:23:11.103Z,101331.79
2023-05-19T03:24:11.091Z,101334.76
2023-05-19T03:25:11.082Z,101336.49
2023-05-19T03:26:11.093Z,101340.57
2023-05-19T03:27:11.084Z,101338.26
2023-05-19T03:28:11.083Z,101340.01
2023-05-19T03:29:11.095Z,101338.34
2023-05-19T03:30:11.093Z,101340.92
2023-05-19T03:31:11.088Z,101336.54
2023-05-19T03:32:11.115Z,101339.38
2023-05-19T03:33:11.349Z,101342.66
2023-05-19T03:34:11.093Z,101340.15
2023-05-19T03:35:11.092Z,101340.64
2023-05-19T03:36:11.108Z,101339.79
2023-05-19T03:37:11.102Z,101343.58
2023-05-19T03:38:11.089Z,101343.26
2023-05-19T03:39:11.090Z,101343.54
2023-05-19T03:40:11.090Z,101343.12
2023-05-19T03:41:11.086Z,101343.65
2023-05-19T03:42:11.101Z,101348.60
2023-05-19T03:43:11.097Z,101345.95
2023-05-19T03:44:11.097Z,101344.05
2023-05-19T03:45:11.093Z,101343.45
2023-05-19T03:46:11.153Z,101341.03
2023-05-19T03:47:11.094Z,101342.79
2023-05-19T03:48:11.172Z,101339.96
2023-05-19T03:49:11.097Z,101340.87
2023-05-19T03:50:11.109Z,101342.41
2023-05-19T03:51:11.093Z,101340.77
2023-05-19T03:52:11.098Z,101340.25
2023-05-19T03:53:11.093Z,101342.66
2023-05-19T03:54:11.090Z,101341.62
2023-05-19T03:55:11.103Z,101344.62
2023-05-19T03:56:11.098Z,101345.93
2023-05-19T03:57:11.099Z,101345.92
2023-05-19T03:58:11.100Z,101348.60
2023-05-19T03:59:11.099Z,101349.50
2023-05-19T04:00:11.120Z,101348.74
2023-05-19T04:01:11.062Z,101353.03
2023-05-19T04:02:11.107Z,101353.28
2023-05-19T04:03:11.219Z,101357.39
2023-05-19T04:04:11.145Z,101358.16
2023-05-19T04:05:11.070Z,101362.91
2023-05-19T04:06:11.065Z,101363.70
2023-05-19T04:07:11.059Z,101364.61
2023-05-19T04:08:11.071Z,101364.22
2023-05-19T04:09:13.098Z,101359.14
2023-05-19T04:10:11.064Z,101355.31
2023-05-19T04:11:11.067Z,101354.59
2023-05-19T04:12:11.068Z,101350.50
2023-05-19T04:13:11.065Z,101351.11
2023-05-19T04:14:11.087Z,101347.02
2023-05-19T04:15:11.066Z,101347.51
2023-05-19T04:16:11.131Z,101345.19
2023-05-19T04:17:11.071Z,101343.80
2023-05-19T04:18:11.114Z,101340.18
2023-05-19T04:19:11.077Z,101338.11
2023-05-19T04:20:11.068Z,101338.93
2023-05-19T04:21:12.071Z,101338.31
2023-05-19T04:22:11.068Z,101337.95
2023-05-19T04:23:11.073Z,101336.38
2023-05-19T04:24:11.069Z,101334.57
2023-05-19T04:25:11.069Z,101330.12
2023-05-19T04:26:11.067Z,101330.70
2023-05-19T04:27:15.069Z,101334.10
2023-05-19T04:28:11.070Z,101333.89
2023-05-19T04:29:11.068Z,101328.74
2023-05-19T04:30:11.069Z,101325.17
2023-05-19T04:31:14.098Z,101323.98
2023-05-19T04:32:11.072Z,101322.77
2023-05-19T04:33:11.128Z,101323.33
2023-05-19T04:34:11.071Z,101320.55
2023-05-19T04:35:11.070Z,101319.66
2023-05-19T04:36:12.078Z,101317.27
2023-05-19T04:37:11.070Z,101312.06
2023-05-19T04:38:11.066Z,101311.25
2023-05-19T04:39:13.080Z,101308.59
2023-05-19T04:40:11.155Z,101308.17
2023-05-19T04:41:11.111Z,101302.71
2023-05-19T04:42:11.074Z,101304.29
2023-05-19T04:43:11.070Z,101303.72
2023-05-19T04:44:11.068Z,101301.05
2023-05-19T04:45:12.072Z,101297.12
2023-05-19T04:46:13.838Z,101297.31
2023-05-19T04:47:11.093Z,101296.08
2023-05-19T04:48:11.076Z,101298.12
2023-05-19T04:49:11.073Z,101300.11
2023-05-19T04:50:11.163Z,101306.06
2023-05-19T04:51:11.076Z,101308.04
2023-05-19T04:52:11.109Z,101313.16
2023-05-19T04:53:11.069Z,101316.50
2023-05-19T04:54:11.080Z,101318.58
2023-05-19T04:55:11.074Z,101320.20
2023-05-19T04:56:11.069Z,101321.01
2023-05-19T04:57:11.073Z,101315.26
2023-05-19T04:58:11.073Z,101316.26
2023-05-19T04:59:11.075Z,101312.90
2023-05-19T05:00:12.088Z,101312.70
2023-05-19T05:01:11.074Z,101313.20
2023-05-19T05:02:11.194Z,101313.29
2023-05-19T05:03:11.147Z,101311.26
2023-05-19T05:04:11.160Z,101309.10
2023-05-19T05:05:11.079Z,101308.01
2023-05-19T05:06:11.073Z,101310.16
2023-05-19T05:07:11.069Z,101311.46
2023-05-19T05:08:11.080Z,101311.42
2023-05-19T05:09:11.073Z,101313.07
2023-05-19T05:10:11.079Z,101313.59
2023-05-19T05:11:11.069Z,101312.54
2023-05-19T05:12:11.091Z,101314.53
2023-05-19T05:13:11.959Z,101316.23
2023-05-19T05:14:11.069Z,101312.37
2023-05-19T05:15:11.072Z,101316.22
2023-05-19T05:16:11.122Z,101317.88
2023-05-19T05:17:11.074Z,101317.37
2023-05-19T05:18:11.109Z,101321.23
2023-05-19T05:19:11.170Z,101320.79
2023-05-19T05:20:11.070Z,101321.29
2023-05-19T05:21:11.077Z,101322.75
2023-05-19T05:22:11.069Z,101324.89
2023-05-19T05:23:11.073Z,101327.76
2023-05-19T05:24:11.077Z,101333.27
2023-05-19T05:25:11.073Z,101335.50
2023-05-19T05:26:17.072Z,101337.49
2023-05-19T05:27:11.079Z,101337.18
2023-05-19T05:28:11.072Z,101336.70
2023-05-19T05:29:11.081Z,101339.97
2023-05-19T05:30:11.068Z,101339.41
2023-05-19T05:31:11.083Z,101337.71
2023-05-19T05:32:11.133Z,101335.99
2023-05-19T05:33:11.202Z,101335.08
2023-05-19T05:34:11.073Z,101335.01
2023-05-19T05:35:11.067Z,101334.13
2023-05-19T05:36:11.073Z,101332.56
2023-05-19T05:37:13.114Z,101333.95
2023-05-19T05:38:11.067Z,101336.00
2023-05-19T05:39:11.084Z,101332.60
2023-05-19T05:40:11.074Z,101333.28
2023-05-19T05:41:11.068Z,101333.23
2023-05-19T05:42:11.102Z,101336.72
2023-05-19T05:43:11.071Z,101337.66
2023-05-19T05:44:11.073Z,101334.14
2023-05-19T05:45:11.077Z,101334.67
2023-05-19T05:46:11.151Z,101333.59
2023-05-19T05:47:11.068Z,101333.92
2023-05-19T05:48:11.107Z,101331.81
2023-05-19T05:49:11.073Z,101331.97
2023-05-19T05:50:11.087Z,101335.57
2023-05-19T05:51:11.088Z,101338.40
2023-05-19T05:52:12.077Z,101342.62
2023-05-19T05:53:15.077Z,101339.88
2023-05-19T05:54:11.079Z,101344.25
2023-05-19T05:55:11.078Z,101348.01
2023-05-19T05:56:11.076Z,101344.04
2023-05-19T05:57:11.089Z,101345.90
2023-05-19T05:58:11.079Z,101349.74
2023-05-19T05:59:11.073Z,101348.52
2023-05-19T06:00:11.081Z,101350.59
2023-05-19T06:01:14.094Z,101349.74
2023-05-19T06:02:11.081Z,101349.84
2023-05-19T06:03:11.276Z,101349.06
2023-05-19T06:04:11.080Z,101353.18
2023-05-19T06:05:11.124Z,101357.25
2023-05-19T06:06:11.084Z,101356.17
2023-05-19T06:07:11.099Z,101352.82
2023-05-19T06:08:11.086Z,101353.91
2023-05-19T06:09:11.089Z,101353.06
2023-05-19T06:10:11.081Z,101355.91
2023-05-19T06:11:13.092Z,101357.34
2023-05-19T06:12:11.098Z,101355.44
2023-05-19T06:13:11.084Z,101358.62
2023-05-19T06:14:11.098Z,101353.55
2023-05-19T06:15:11.093Z,101354.19
2023-05-19T06:16:11.150Z,101354.78
2023-05-19T06:17:11.078Z,101354.95
2023-05-19T06:18:11.145Z,101357.50
2023-05-19T06:19:11.182Z,101354.84
2023-05-19T06:20:11.107Z,101354.05
2023-05-19T06:21:11.091Z,101354.60
2023-05-19T06:22:11.080Z,101355.85
2023-05-19T06:23:11.092Z,101350.40
2023-05-19T06:24:11.089Z,101352.12
2023-05-19T06:25:11.084Z,101352.13
2023-05-19T06:26:11.087Z,101352.43
2023-05-19T06:27:11.101Z,101353.39
2023-05-19T06:28:11.089Z,101356.34
2023-05-19T06:29:11.087Z,101357.25
2023-05-19T06:30:12.092Z,101357.25
2023-05-19T06:31:11.227Z,101360.33
2023-05-19T06:32:11.092Z,101361.39
2023-05-19T06:33:11.158Z,101362.10
2023-05-19T06:34:11.086Z,101365.07
2023-05-19T06:35:11.080Z,101368.47
2023-05-19T06:36:11.092Z,101367.30
2023-05-19T06:37:11.089Z,101364.90
2023-05-19T06:38:11.089Z,101369.95
2023-05-19T06:39:11.090Z,101371.66
2023-05-19T06:40:11.087Z,101370.88
2023-05-19T06:41:11.091Z,101368.07
2023-05-19T06:42:11.100Z,101371.43
2023-05-19T06:43:11.088Z,101371.28
2023-05-19T06:44:11.086Z,101376.70
2023-05-19T06:45:11.095Z,101382.48
2023-05-19T06:46:11.086Z,101380.98
2023-05-19T06:47:11.183Z,101383.67
2023-05-19T06:48:11.141Z,101383.29
2023-05-19T06:49:11.092Z,101378.68
2023-05-19T06:50:11.104Z,101377.90
2023-05-19T06:51:11.097Z,101375.90
2023-05-19T06:52:11.092Z,101377.87
2023-05-19T06:53:11.093Z,101376.91
2023-05-19T06:54:11.137Z,101375.50
2023-05-19T06:55:11.104Z,101378.89
2023-05-19T06:56:11.087Z,101380.60
2023-05-19T06:57:11.097Z,101379.52
2023-05-19T06:58:11.101Z,101375.65
2023-05-19T06:59:11.091Z,101382.07
2023-05-19T07:00:15.958Z,101376.91
2023-05-19T07:01:11.065Z,101374.85
2023-05-19T07:02:11.125Z,101372.69
2023-05-19T07:03:11.202Z,101374.32
2023-05-19T07:04:11.151Z,101375.17
2023-05-19T07:05:11.066Z,101374.77
2023-05-19T07:06:11.070Z,101377.21
2023-05-19T07:07:11.068Z,101376.61
2023-05-19T07:08:12.066Z,101376.68
2023-05-19T07:09:11.063Z,101380.16
2023-05-19T07:10:11.075Z,101385.46
2023-05-19T07:11:11.063Z,101385.91
2023-05-19T07:12:11.072Z,101382.24
2023-05-19T07:13:11.067Z,101382.85
2023-05-19T07:14:11.069Z,101383.36
2023-05-19T07:15:11.068Z,101385.32
2023-05-19T07:16:11.096Z,101382.62
2023-05-19T07:17:11.069Z,101385.67
2023-05-19T07:18:11.150Z,101386.87
2023-05-19T07:19:11.144Z,101387.15
2023-05-19T07:20:15.072Z,101387.30
2023-05-19T07:21:11.075Z,101387.81
2023-05-19T07:22:11.070Z,101387.11
2023-05-19T07:23:11.087Z,101388.54
2023-05-19T07:24:11.077Z,101389.86
2023-05-19T07:25:11.067Z,101391.96
2023-05-19T07:26:11.070Z,101391.43
2023-05-19T07:27:11.074Z,101388.60
2023-05-19T07:28:11.069Z,101390.59
2023-05-19T07:29:11.065Z,101392.58
2023-05-19T07:30:11.074Z,101392.61
2023-05-19T07:31:11.068Z,101393.16
2023-05-19T07:32:11.127Z,101395.38
2023-05-19T07:33:11.144Z,101393.94
2023-05-19T07:34:11.068Z,101391.96
2023-05-19T07:35:11.064Z,101392.14
2023-05-19T07:36:11.076Z,101391.98
2023-05-19T07:37:11.079Z,101388.90
2023-05-19T07:38:11.085Z,101389.72
2023-05-19T07:39:11.179Z,101390.77
2023-05-19T07:40:13.123Z,101388.23
2023-05-19T07:41:11.074Z,101386.92
2023-05-19T07:42:11.071Z,101385.76
2023-05-19T07:43:11.069Z,101386.25
2023-05-19T07:44:11.074Z,101391.88
2023-05-19T07:45:11.065Z,101391.17
2023-05-19T07:46:11.145Z,101388.45
2023-05-19T07:47:11.069Z,101389.56
2023-05-19T07:48:11.097Z,101385.52
2023-05-19T07:49:11.068Z,101383.99
2023-05-19T07:50:11.074Z,101382.00
2023-05-19T07:51:13.077Z,101387.17
2023-05-19T07:52:11.071Z,101384.48
2023-05-19T07:53:11.067Z,101387.12
2023-05-19T07:54:12.071Z,101392.30
2023-05-19T07:55:11.076Z,101396.43
2023-05-19T07:56:11.071Z,101392.75
2023-05-19T07:57:11.072Z,101395.12
2023-05-19T07:58:11.066Z,101395.89
2023-05-19T07:59:11.069Z,101389.66
2023-05-19T08:00:15.074Z,101389.22
2023-05-19T08:01:11.072Z,101390.05
2023-05-19T08:02:11.116Z,101388.62
2023-05-19T08:03:11.242Z,101393.59
2023-05-19T08:04:12.891Z,101390.60
2023-05-19T08:05:11.070Z,101388.06
2023-05-19T08:06:12.074Z,101386.31
2023-05-19T08:07:11.072Z,101387.19
2023-05-19T08:08:11.069Z,101384.03
2023-05-19T08:09:11.085Z,101381.00
2023-05-19T08:10:11.093Z,101384.14
2023-05-19T08:11:11.067Z,101381.92
2023-05-19T08:12:11.070Z,101378.12
2023-05-19T08:13:11.094Z,101380.54
2023-05-19T08:14:11.075Z,101382.44
2023-05-19T08:15:11.074Z,101377.41
2023-05-19T08:16:11.111Z,101374.82
2023-05-19T08:17:11.081Z,101372.85
2023-05-19T08:18:11.110Z,101374.09
2023-05-19T08:19:11.146Z,101373.85
2023-05-19T08:20:12.091Z,101373.48
2023-05-19T08:21:11.076Z,101378.02
2023-05-19T08:22:11.083Z,101377.39
2023-05-19T08:23:11.078Z,101378.02
2023-05-19T08:24:11.075Z,101377.48
2023-05-19T08:25:11.088Z,101378.84
2023-05-19T08:26:11.075Z,101374.25
2023-05-19T08:27:11.078Z,101374.13
2023-05-19T08:28:11.083Z,101370.71
2023-05-19T08:29:11.082Z,101366.26
2023-05-19T08:30:11.104Z,101362.04
2023-05-19T08:31:11.108Z,101366.50
2023-05-19T08:32:13.062Z,101368.95
2023-05-19T08:33:11.165Z,101367.13
2023-05-19T08:34:11.093Z,101369.45
2023-05-19T08:35:11.078Z,101370.27
2023-05-19T08:36:11.081Z,101367.93
2023-05-19T08:37:11.094Z,101365.55
2023-05-19T08:38:11.082Z,101369.43
2023-05-19T08:39:11.080Z,101368.84
2023-05-19T08:40:15.083Z,101366.16
2023-05-19T08:41:11.085Z,101366.66
2023-05-19T08:42:11.085Z,101363.31
2023-05-19T08:43:11.084Z,101358.89
2023-05-19T08:44:11.080Z,101360.84
2023-05-19T08:45:11.095Z,101357.66
2023-05-19T08:46:13.114Z,101354.63
2023-05-19T08:47:15.081Z,101357.52
2023-05-19T08:48:11.120Z,101361.24
2023-05-19T08:49:13.087Z,101363.60
2023-05-19T08:50:11.095Z,101361.68
2023-05-19T08:51:19.096Z,101360.37
2023-05-19T08:52:21.084Z,101358.55
2023-05-19T08:54:17.089Z,101354.36
2023-05-19T08:55:19.080Z,101356.12
2023-05-19T08:56:19.091Z,101352.80
2023-05-19T08:57:11.084Z,101352.18
2023-05-19T08:58:11.080Z,101353.14
2023-05-19T08:59:11.081Z,101351.53
2023-05-19T09:00:14.081Z,101350.68
2023-05-19T09:01:13.184Z,101352.72
2023-05-19T09:02:11.085Z,101353.88
2023-05-19T09:03:23.052Z,101351.22
2023-05-19T09:04:13.185Z,101352.16
2023-05-19T09:05:11.158Z,101347.86
2023-05-19T09:06:11.090Z,101346.38
2023-05-19T09:07:11.085Z,101347.86
2023-05-19T09:08:11.078Z,101348.48
2023-05-19T09:09:11.088Z,101350.32
2023-05-19T09:10:11.083Z,101351.53
2023-05-19T09:11:13.088Z,101349.68
2023-05-19T09:12:13.096Z,101347.93
2023-05-19T09:13:11.097Z,101348.65
2023-05-19T09:14:11.085Z,101348.03
2023-05-19T09:15:11.090Z,101346.57
2023-05-19T09:16:11.131Z,101347.63
2023-05-19T09:17:11.124Z,101347.38
2023-05-19T09:18:11.156Z,101349.24
2023-05-19T09:19:15.099Z,101353.54
2023-05-19T09:20:14.084Z,101354.07
2023-05-19T09:21:11.082Z,101353.64
2023-05-19T09:22:11.092Z,101351.18
2023-05-19T09:23:14.124Z,101349.31
2023-05-19T09:24:11.088Z,101351.70
2023-05-19T09:25:19.125Z,101352.28
2023-05-19T09:26:11.090Z,101351.25
2023-05-19T09:27:13.088Z,101348.80
2023-05-19T09:28:11.086Z,101347.66
2023-05-19T09:29:15.126Z,101354.00
2023-05-19T09:30:11.084Z,101352.75
2023-05-19T09:31:11.115Z,101351.98
2023-05-19T09:32:11.112Z,101353.98
2023-05-19T09:33:16.114Z,101351.23
2023-05-19T09:34:15.080Z,101343.62
2023-05-19T09:35:11.088Z,101348.60
2023-05-19T09:36:11.125Z,101350.12
2023-05-19T09:37:12.088Z,101345.35
2023-05-19T09:38:15.088Z,101338.82
2023-05-19T09:39:15.097Z,101345.13
2023-05-19T09:40:15.091Z,101350.30
2023-05-19T09:41:11.090Z,101349.04
2023-05-19T09:42:11.096Z,101347.32
2023-05-19T09:43:11.091Z,101343.10
2023-05-19T09:44:14.094Z,101347.09
2023-05-19T09:45:11.087Z,101350.02
2023-05-19T09:46:12.189Z,101349.87
2023-05-19T09:47:11.086Z,101349.47
2023-05-19T09:48:11.093Z,101348.33
2023-05-19T09:49:11.098Z,101351.26
2023-05-19T09:50:11.096Z,101343.42
2023-05-19T09:51:11.166Z,101344.84
2023-05-19T09:52:12.635Z,101339.49
2023-05-19T09:53:11.087Z,101343.92
2023-05-19T09:54:14.091Z,101345.07
2023-05-19T09:55:14.104Z,101341.76
2023-05-19T09:56:11.088Z,101343.36
2023-05-19T09:57:11.089Z,101340.88
2023-05-19T09:58:12.724Z,101340.53
2023-05-19T09:59:11.092Z,101341.56
2023-05-19T10:00:17.144Z,101338.47
2023-05-19T10:01:11.092Z,101340.50
2023-05-19T10:02:16.069Z,101339.26
2023-05-19T10:03:11.073Z,101339.30
2023-05-19T10:04:11.075Z,101341.57
2023-05-19T10:05:14.098Z,101340.25
2023-05-19T10:06:11.061Z,101339.62
2023-05-19T10:07:12.067Z,101338.61
2023-05-19T10:08:11.078Z,101336.54
2023-05-19T10:09:11.065Z,101334.46
2023-05-19T10:10:12.065Z,101335.48
2023-05-19T10:11:11.071Z,101338.62
2023-05-19T10:12:11.077Z,101336.54
2023-05-19T10:13:11.068Z,101334.63
2023-05-19T10:14:11.071Z,101337.21
2023-05-19T10:15:13.062Z,101337.86
2023-05-19T10:16:11.127Z,101337.02
2023-05-19T10:17:11.076Z,101338.50
2023-05-19T10:18:13.129Z,101340.45
2023-05-19T10:19:11.081Z,101340.88
2023-05-19T10:20:11.066Z,101341.01
2023-05-19T10:21:11.067Z,101340.04
2023-05-19T10:22:11.064Z,101339.33
2023-05-19T10:23:11.070Z,101339.45
2023-05-19T10:24:11.630Z,101336.12
2023-05-19T10:25:11.068Z,101337.66
2023-05-19T10:26:11.072Z,101341.62
2023-05-19T10:27:13.072Z,101340.86
2023-05-19T10:28:17.068Z,101337.37
2023-05-19T10:29:11.060Z,101336.33
2023-05-19T10:30:16.512Z,101332.30
2023-05-19T10:31:13.069Z,101333.93
2023-05-19T10:32:14.119Z,101336.22
2023-05-19T10:33:13.130Z,101334.20
2023-05-19T10:34:19.098Z,101335.70
2023-05-19T10:35:21.087Z,101335.70
2023-05-19T10:36:20.069Z,101334.94
2023-05-19T10:37:19.072Z,101340.22
2023-05-19T10:38:19.077Z,101336.89
2023-05-19T10:39:19.126Z,101338.96
2023-05-19T10:40:18.069Z,101340.29
2023-05-19T10:41:19.073Z,101342.35
2023-05-19T10:42:21.101Z,101342.18
2023-05-19T10:43:19.084Z,101336.97
2023-05-19T10:44:19.079Z,101342.28
2023-05-19T10:45:18.071Z,101342.67
2023-05-19T10:46:11.125Z,101338.89
2023-05-19T10:47:11.161Z,101341.30
2023-05-19T10:48:15.147Z,101340.59
2023-05-19T10:49:11.073Z,101341.82
2023-05-19T10:50:11.117Z,101342.77
2023-05-19T10:51:11.078Z,101347.50
2023-05-19T10:52:19.081Z,101339.25
2023-05-19T10:53:15.081Z,101340.29
2023-05-19T10:54:12.265Z,101332.66
2023-05-19T10:55:14.072Z,101335.60
2023-05-19T10:56:11.071Z,101336.44
2023-05-19T10:57:14.098Z,101341.38
2023-05-19T10:58:11.080Z,101342.54
2023-05-19T10:59:19.086Z,101340.69
2023-05-19T11:00:26.078Z,101347.23
2023-05-19T11:01:15.110Z,101345.02
2023-05-19T11:02:11.142Z,101340.76
2023-05-19T11:03:17.078Z,101344.27
2023-05-19T11:04:11.140Z,101345.62
2023-05-19T11:05:14.087Z,101349.27
2023-05-19T11:06:19.084Z,101351.22
2023-05-19T11:07:11.082Z,101346.22
2023-05-19T11:08:11.077Z,101351.16
2023-05-19T11:10:11.085Z,101347.96
2023-05-19T11:11:15.090Z,101352.64
2023-05-19T11:12:11.089Z,101355.83
2023-05-19T11:13:19.081Z,101353.09
2023-05-19T11:14:12.077Z,101359.41
2023-05-19T11:15:15.100Z,101359.41
2023-05-19T11:16:11.086Z,101362.55
2023-05-19T11:17:14.082Z,101361.69
2023-05-19T11:18:13.129Z,101360.56
2023-05-19T11:19:15.112Z,101359.25
2023-05-19T11:20:15.088Z,101362.14
2023-05-19T11:21:11.123Z,101361.99
2023-05-19T11:22:11.081Z,101361.77
2023-05-19T11:23:14.131Z,101365.04
2023-05-19T11:24:11.103Z,101364.38
2023-05-19T11:25:11.082Z,101361.04
2023-05-19T11:26:11.080Z,101363.80